Map

Track Data

SID SEASON NUMBER BASIN SUBBASIN NAME ISO_TIME NATURE LAT LON WMO_WIND WMO_PRES WMO_AGENCY TRACK_TYPE DIST2LAND LANDFALL IFLAG USA_AGENCY USA_ATCF_ID USA_LAT USA_LON USA_RECORD USA_STATUS USA_WIND USA_PRES USA_SSHS USA_R34_NE USA_R34_SE USA_R34_SW USA_R34_NW USA_R50_NE USA_R50_SE USA_R50_SW USA_R50_NW USA_R64_NE USA_R64_SE USA_R64_SW USA_R64_NW USA_POCI USA_ROCI USA_RMW USA_EYE TOKYO_LAT TOKYO_LON TOKYO_GRADE TOKYO_WIND TOKYO_PRES TOKYO_R50_DIR TOKYO_R50_LONG TOKYO_R50_SHORT TOKYO_R30_DIR TOKYO_R30_LONG TOKYO_R30_SHORT TOKYO_LAND CMA_LAT CMA_LON CMA_CAT CMA_WIND CMA_PRES HKO_LAT HKO_LON HKO_CAT HKO_WIND HKO_PRES NEWDELHI_LAT NEWDELHI_LON NEWDELHI_GRADE NEWDELHI_WIND NEWDELHI_PRES NEWDELHI_CI NEWDELHI_DP NEWDELHI_POCI REUNION_LAT REUNION_LON REUNION_TYPE REUNION_WIND REUNION_PRES REUNION_TNUM REUNION_CI REUNION_RMW REUNION_R34_NE REUNION_R34_SE REUNION_R34_SW REUNION_R34_NW REUNION_R50_NE REUNION_R50_SE REUNION_R50_SW REUNION_R50_NW REUNION_R64_NE REUNION_R64_SE REUNION_R64_SW REUNION_R64_NW BOM_LAT BOM_LON BOM_TYPE BOM_WIND BOM_PRES BOM_TNUM BOM_CI BOM_RMW BOM_R34_NE BOM_R34_SE BOM_R34_SW BOM_R34_NW BOM_R50_NE BOM_R50_SE BOM_R50_SW BOM_R50_NW BOM_R64_NE BOM_R64_SE BOM_R64_SW BOM_R64_NW BOM_ROCI BOM_POCI BOM_EYE BOM_POS_METHOD BOM_PRES_METHOD NADI_LAT NADI_LON NADI_CAT NADI_WIND NADI_PRES WELLINGTON_LAT WELLINGTON_LON WELLINGTON_WIND WELLINGTON_PRES DS824_LAT DS824_LON DS824_STAGE DS824_WIND DS824_PRES TD9636_LAT TD9636_LON TD9636_STAGE TD9636_WIND TD9636_PRES TD9635_LAT TD9635_LON TD9635_WIND TD9635_PRES TD9635_ROCI NEUMANN_LAT NEUMANN_LON NEUMANN_CLASS NEUMANN_WIND NEUMANN_PRES MLC_LAT MLC_LON MLC_CLASS MLC_WIND MLC_PRES USA_GUST BOM_GUST BOM_GUST_PER REUNION_GUST REUNION_GUST_PER USA_SEAHGT USA_SEARAD_NE USA_SEARAD_SE USA_SEARAD_SW USA_SEARAD_NW STORM_SPEED STORM_DIR
1872243N29299 1872 19 NA NA NOT_NAMED 1872-08-30 03:00:00 TS 29.1500 -61.3151 spur-other 1283 1283 ______________ -1 5 21
1872243N29299 1872 19 NA NA NOT_NAMED 1872-08-30 06:00:00 TS 29.4000 -61.2000 spur-other 1307 1307 _____________O -1 29.4000 -61.2000 HU 85 5 20
1872243N29299 1872 19 NA NA NOT_NAMED 1872-08-30 09:00:00 TS 29.5924 -61.1297 spur-other 1331 1331 _____________P -1 29.5774 -61.1398 HU 85 4 23
1872243N29299 1872 19 NA NA NOT_NAMED 1872-08-30 12:00:00 TS 29.8000 -61.0000 spur-other 1356 1356 _____________O -1 29.8000 -61.0000 HU 85 6 35
1872243N29299 1872 19 NA NA NOT_NAMED 1872-08-30 15:00:00 TS 30.0926 -60.7302 spur-other 1398 1398 _____________P -1 30.0926 -60.7302 HU 85 8 41
1872243N29299 1872 19 NA NA NOT_NAMED 1872-08-30 18:00:00 TS 30.4000 -60.4000 spur-other 1439 1439 _____________O -1 30.4000 -60.4000 HU 85 8 44
1872243N29299 1872 19 NA NA NOT_NAMED 1872-08-30 21:00:00 TS 30.6499 -60.1071 spur-other 1471 1471 _____________P -1 30.6499 -60.1071 HU 85 7 46
1872243N29299 1872 19 NA NA NOT_NAMED 1872-08-31 00:00:00 TS 30.9000 -59.8000 spur-other 1484 1461 _____________O -1 30.9000 -59.8000 HU 85 8 46
1872243N29299 1872 19 NA NA NOT_NAMED 1872-08-31 03:00:00 TS 31.2000 -59.4501 spur-other 1461 1439 _____________P -1 31.2000 -59.4501 HU 85 8 45
1872243N29299 1872 19 NA NA NOT_NAMED 1872-08-31 06:00:00 TS 31.5000 -59.1000 spur-other 1442 1428 _____________O -1 31.5000 -59.1000 HU 85 7 48
1872243N29299 1872 19 NA NA NOT_NAMED 1872-08-31 09:00:00 TS 31.6973 -58.8063 spur-other 1431 1411 _____________P -1 31.6973 -58.8063 HU 82 7 46
1872243N29299 1872 19 NA NA NOT_NAMED 1872-08-31 12:00:00 TS 32.0000 -58.5000 spur-other 1411 1365 _____________O -1 32.0000 -58.5000 HU 80 11 34
1872243N29299 1872 19 NA NA NOT_NAMED 1872-08-31 15:00:00 TS 32.5901 -58.1080 spur-other 1365 1312 _____________P -1 32.5901 -58.1080 HU 80 15 27
1872243N29299 1872 19 NA NA NOT_NAMED 1872-08-31 18:00:00 TS 33.3000 -57.7000 spur-other 1312 1267 _____________O -1 33.3000 -57.7000 HU 80 15 25
1872243N29299 1872 19 NA NA NOT_NAMED 1872-08-31 21:00:00 TS 33.9498 -57.3491 spur-other 1271 1220 _____________P -1 33.9498 -57.3491 HU 80 14 24
1872243N29299 1872 19 NA NA NOT_NAMED 1872-09-01 00:00:00 TS 34.6000 -57.0000 spur-other 1220 1175 _____________O -1 34.6000 -57.0000 HU 80 14 25
1872243N29299 1872 19 NA NA NOT_NAMED 1872-09-01 03:00:00 TS 35.2500 -56.5997 spur-other 1165 1113 _____________P -1 35.2500 -56.5997 HU 77 15 27
1872243N29299 1872 19 NA NA NOT_NAMED 1872-09-01 06:00:00 TS 35.9000 -56.2000 spur-other 1113 1061 _____________O -1 35.9000 -56.2000 HU 75 14 26
1872243N29299 1872 19 NA NA NOT_NAMED 1872-09-01 09:00:00 TS 36.5349 -55.8342 spur-other 1064 1004 _____________P -1 36.5349 -55.8342 HU 75 14 23
1872243N29299 1872 19 NA NA NOT_NAMED 1872-09-01 12:00:00 TS 37.2000 -55.5000 spur-other 1004 947 _____________O -1 37.2000 -55.5000 HU 75 15 20
1872243N29299 1872 19 NA NA NOT_NAMED 1872-09-01 15:00:00 TS 37.9349 -55.1919 spur-other 947 884 _____________P -1 37.9349 -55.1919 HU 72 16 17
1872243N29299 1872 19 NA NA NOT_NAMED 1872-09-01 18:00:00 TS 38.7000 -54.9000 spur-other 884 804 _____________O -1 38.7000 -54.9000 HU 70 16 17
1872243N29299 1872 19 NA NA NOT_NAMED 1872-09-01 21:00:00 TS 39.4499 -54.5994 spur-other 804 713 _____________P -1 39.4499 -54.5994 HU 70 16 17
1872243N29299 1872 19 NA NA NOT_NAMED 1872-09-02 00:00:00 TS 40.2000 -54.3000 spur-other 713 634 _____________O -1 40.2000 -54.3000 HU 70 16 17
1872243N29299 1872 19 NA NA NOT_NAMED 1872-09-02 03:00:00 TS 40.9500 -53.9921 spur-other 634 544 _____________P -1 40.9500 -53.9921 HU 67 16 17
1872243N29299 1872 19 NA NA NOT_NAMED 1872-09-02 06:00:00 TS 41.7000 -53.7000 spur-other 544 466 _____________O -1 41.7000 -53.7000 HU 65 15 14
1872243N29299 1872 19 NA NA NOT_NAMED 1872-09-02 09:00:00 TS 42.4495 -53.4850 spur-other 466 377 _____________P -1 42.4495 -53.4850 HU 65 15 14
1872243N29299 1872 19 NA NA NOT_NAMED 1872-09-02 12:00:00 TS 43.2000 -53.2000 spur-other 377 301 _____________O -1 43.2000 -53.2000 HU 65 16 21
1872243N29299 1872 19 NA NA NOT_NAMED 1872-09-02 15:00:00 TS 43.9197 -52.7301 spur-other 302 227 _____________P -1 43.9197 -52.7301 HU 60 17 28
1872243N29299 1872 19 NA NA NOT_NAMED 1872-09-02 18:00:00 TS 44.7000 -52.1000 spur-other 227 177 _____________O -1 44.7000 -52.1000 TS 55 20 30
1872243N29299 1872 19 NA NA NOT_NAMED 1872-09-02 21:00:00 TS 45.6280 -51.3237 spur-other 183 171 _____________P -1 45.6280 -51.3237 TS 50 22 30
1872243N29299 1872 19 NA NA NOT_NAMED 1872-09-03 00:00:00 TS 46.6000 -50.5000 spur-other 187 181 _____________O -1 46.6000 -50.5000 TS 45 22 29
1872243N29299 1872 19 NA NA NOT_NAMED 1872-09-03 03:00:00 TS 47.5217 -49.7822 spur-other 209 209 _____________P -1 47.5217 -49.7822 TS 45 20 28
1872243N29299 1872 19 NA NA NOT_NAMED 1872-09-03 06:00:00 ET 48.4000 -49.1000 spur-other 274 274 _____________O -1 48.4000 -49.1000 EX 45 19 28
1872243N29299 1872 19 NA NA NOT_NAMED 1872-09-03 09:00:00 ET 49.2185 -48.4096 spur-other 343 343 _____________P -1 49.2185 -48.4096 EX 45 18 30
1872243N29299 1872 19 NA NA NOT_NAMED 1872-09-03 12:00:00 ET 50.0000 -47.7000 spur-other 417 _____________O -1 50.0000 -47.7000 EX 45 18 30

About IBTrACS Database

This database is a web-friendly format of International Best Track Archive for Climate Stewardship (IBTrACS), a global best track data archive curated by NOAA dating back to 1842.

Updated: 2021-12-06